Terminal Aerodrome Forecast
Issued by NWS

Current Version | Previous Version | Text Only | Print | Product List | Glossary On
Versions: 1 2 3 4 5 6 7 8 9 10 11 12 13 14 15 16 17 18
000
FTUS46 KMFR 191440 AAB
TAFLMT
TAF AMD
KLMT 191440Z 1915/2012 30003KT 4SM BR FEW003
     FM191600 20007KT P6SM BKN200
     FM200700 17013KT P6SM -RA OVC050 WS020/25040KT=

USA.gov is the U.S. government's official web portal to all federal, state and local government web resources and services.